Time;durP1;ratioP1;P1;durP2;ratioP2;P2;SDS_P1;SDS_P2;PMS_P1;PMS_P2;Temp;Humidity;BMP_temperature;BMP_pressure;BME280_temperature;BME280_humidity;BME280_pressure;Samples;Min_cycle;Max_cycle;Signal;HPM_P1;HPM_P2
2021/05/24 00:00:45;;;;;;;2.50;1.30;;;10.40;99.90;;;;;;5069820;28;20203;-58
2021/05/24 00:03:11;;;;;;;3.60;1.50;;;10.40;99.90;;;;;;5071778;28;20349;-57
2021/05/24 00:05:38;;;;;;;4.27;1.30;;;10.40;99.90;;;;;;5071216;28;20622;-53
2021/05/24 00:08:05;;;;;;;3.90;1.40;;;10.40;99.90;;;;;;5071544;28;20236;-57
2021/05/24 00:10:33;;;;;;;5.73;1.40;;;10.40;99.90;;;;;;5071292;28;20246;-55
2021/05/24 00:13:02;;;;;;;3.50;1.20;;;10.50;99.90;;;;;;5071238;28;20277;-57
2021/05/24 00:15:32;;;;;;;1.90;1.13;;;10.40;99.90;;;;;;5069669;28;20229;-57
2021/05/24 00:17:59;;;;;;;2.63;1.40;;;10.50;99.90;;;;;;5071530;28;20201;-60
2021/05/24 00:20:27;;;;;;;1.70;1.30;;;10.40;99.90;;;;;;5071444;28;20204;-59
2021/05/24 00:22:54;;;;;;;1.80;1.20;;;10.50;99.90;;;;;;5071605;28;20207;-52
2021/05/24 00:25:21;;;;;;;5.87;1.60;;;10.50;99.90;;;;;;5071429;28;20256;-58
2021/05/24 00:27:48;;;;;;;3.30;1.47;;;10.50;99.90;;;;;;5071603;28;20208;-56
2021/05/24 00:30:16;;;;;;;1.33;1.10;;;10.50;99.90;;;;;;5072149;28;20232;-60
2021/05/24 00:32:43;;;;;;;2.93;1.10;;;10.50;99.90;;;;;;5073842;28;20212;-57
2021/05/24 00:35:12;;;;;;;3.10;1.57;;;10.50;99.90;;;;;;5075037;28;20255;-58
2021/05/24 00:37:38;;;;;;;3.70;1.33;;;10.40;99.90;;;;;;5075139;28;20207;-58
2021/05/24 00:40:06;;;;;;;3.47;1.20;;;10.40;99.90;;;;;;5074406;28;20204;-56
2021/05/24 00:42:33;;;;;;;4.83;1.67;;;10.40;99.90;;;;;;5075235;28;20297;-57
2021/05/24 00:44:59;;;;;;;1.80;1.27;;;10.40;99.90;;;;;;5074914;28;20227;-57
2021/05/24 00:47:25;;;;;;;2.73;1.30;;;10.40;99.90;;;;;;5078589;28;20253;-55
2021/05/24 00:49:52;;;;;;;8.47;1.30;;;10.40;99.90;;;;;;5086316;28;20228;-53
2021/05/24 00:52:19;;;;;;;1.80;1.17;;;10.40;99.90;;;;;;5074648;28;20216;-53
2021/05/24 00:54:45;;;;;;;2.90;1.37;;;10.40;99.90;;;;;;5074285;28;20239;-53
2021/05/24 00:57:11;;;;;;;3.10;1.50;;;10.50;99.90;;;;;;5074825;28;20212;-59
2021/05/24 00:59:38;;;;;;;4.77;1.70;;;10.50;99.90;;;;;;5074676;28;20574;-56
2021/05/24 01:02:04;;;;;;;3.60;1.60;;;10.50;99.90;;;;;;5074303;28;20216;-56
2021/05/24 01:04:31;;;;;;;3.00;1.37;;;10.50;99.90;;;;;;5075054;28;20225;-55
2021/05/24 01:06:58;;;;;;;1.97;1.10;;;10.40;99.90;;;;;;5072642;28;20212;-53
2021/05/24 01:09:24;;;;;;;2.73;1.40;;;10.40;99.90;;;;;;5074150;28;20629;-56
2021/05/24 01:11:51;;;;;;;3.60;1.50;;;10.40;99.90;;;;;;5074306;28;20594;-55
2021/05/24 01:14:18;;;;;;;2.50;1.13;;;10.40;99.90;;;;;;5073976;28;20583;-54
2021/05/24 01:16:48;;;;;;;2.30;1.10;;;10.50;99.90;;;;;;5074404;28;20212;-58
2021/05/24 01:19:14;;;;;;;2.87;1.20;;;10.50;99.90;;;;;;5074312;28;20710;-51
2021/05/24 01:21:41;;;;;;;3.67;1.30;;;10.50;99.90;;;;;;5073681;28;20208;-59
2021/05/24 01:24:09;;;;;;;2.30;1.20;;;10.60;99.90;;;;;;5074232;28;20201;-56
2021/05/24 01:26:35;;;;;;;1.87;1.20;;;10.60;99.90;;;;;;5074199;28;20220;-56
2021/05/24 01:29:01;;;;;;;4.53;1.50;;;10.70;99.90;;;;;;5074219;28;20235;-55
2021/05/24 01:31:28;;;;;;;2.60;1.00;;;10.70;99.90;;;;;;5073626;28;20596;-57
2021/05/24 01:33:57;;;;;;;2.27;1.10;;;10.80;99.90;;;;;;5074012;28;20204;-58
2021/05/24 01:36:24;;;;;;;3.03;1.47;;;10.80;99.90;;;;;;5073825;28;20692;-59
2021/05/24 01:38:51;;;;;;;3.43;1.40;;;10.80;99.90;;;;;;5074065;28;20623;-59
2021/05/24 01:41:18;;;;;;;2.97;1.30;;;10.80;99.90;;;;;;5073712;28;20205;-56
2021/05/24 01:43:44;;;;;;;2.23;1.30;;;10.80;99.90;;;;;;5072789;28;20215;-58
2021/05/24 01:46:10;;;;;;;3.97;1.33;;;10.90;99.90;;;;;;5073885;28;20233;-57
2021/05/24 01:48:37;;;;;;;1.33;1.10;;;10.90;99.90;;;;;;5073727;28;20611;-56
2021/05/24 01:51:05;;;;;;;2.07;1.17;;;10.90;99.90;;;;;;5072950;28;20224;-57
2021/05/24 01:53:31;;;;;;;4.80;1.40;;;10.90;99.90;;;;;;5073836;28;20207;-60
2021/05/24 01:55:58;;;;;;;1.33;1.13;;;10.90;99.90;;;;;;5073609;28;20240;-57
2021/05/24 01:58:26;;;;;;;2.47;1.10;;;10.80;99.90;;;;;;5073759;28;20209;-52
2021/05/24 02:00:53;;;;;;;2.63;1.27;;;10.90;99.90;;;;;;5073087;28;20285;-55
2021/05/24 02:03:19;;;;;;;3.43;1.20;;;10.80;99.90;;;;;;5073399;28;20664;-56
2021/05/24 02:05:45;;;;;;;1.87;1.10;;;10.70;99.90;;;;;;5073228;28;20232;-58
2021/05/24 02:08:11;;;;;;;1.50;1.10;;;10.70;99.90;;;;;;5073551;28;20219;-59
2021/05/24 02:10:39;;;;;;;2.70;1.10;;;10.70;99.90;;;;;;5073082;28;20261;-55
2021/05/24 02:13:08;;;;;;;1.63;1.10;;;10.80;99.90;;;;;;5072860;28;20665;-58
2021/05/24 02:15:35;;;;;;;1.90;1.23;;;10.80;99.90;;;;;;5073357;28;20231;-56
2021/05/24 02:18:01;;;;;;;2.67;1.10;;;10.70;99.90;;;;;;5072852;28;20265;-54
2021/05/24 02:20:28;;;;;;;3.40;1.20;;;10.70;99.90;;;;;;5072899;28;20203;-55
2021/05/24 02:22:56;;;;;;;2.70;1.03;;;10.70;99.90;;;;;;5072627;28;20660;-54
2021/05/24 02:25:23;;;;;;;2.20;1.10;;;10.70;99.90;;;;;;5072803;28;20277;-52
2021/05/24 02:27:49;;;;;;;2.33;1.20;;;10.80;99.90;;;;;;5073092;28;20263;-54
2021/05/24 02:30:19;;;;;;;2.30;1.10;;;10.70;99.90;;;;;;5072201;28;20767;-58
2021/05/24 02:32:45;;;;;;;1.57;1.00;;;10.70;99.90;;;;;;5072364;28;20205;-53
2021/05/24 02:35:14;;;;;;;1.00;0.90;;;10.60;99.90;;;;;;5072749;28;20281;-56
2021/05/24 02:37:42;;;;;;;1.93;1.20;;;10.60;99.90;;;;;;5073022;28;20205;-51
2021/05/24 02:40:10;;;;;;;2.90;1.20;;;10.50;99.90;;;;;;5072590;28;20208;-55
2021/05/24 02:42:37;;;;;;;4.17;1.10;;;10.50;99.90;;;;;;5072205;28;20212;-56
2021/05/24 02:45:04;;;;;;;2.40;1.30;;;10.50;99.90;;;;;;5072475;28;20790;-58
2021/05/24 02:47:31;;;;;;;2.30;1.00;;;10.50;99.90;;;;;;5072561;28;20212;-58
2021/05/24 02:49:58;;;;;;;2.17;1.00;;;10.50;99.90;;;;;;5072456;28;20243;-55
2021/05/24 02:52:24;;;;;;;2.40;1.40;;;10.50;99.90;;;;;;5071932;28;20688;-56
2021/05/24 02:54:50;;;;;;;4.97;1.13;;;10.60;99.90;;;;;;5072138;28;20240;-57
2021/05/24 02:57:16;;;;;;;3.93;1.10;;;10.60;99.90;;;;;;5072333;28;20685;-58
2021/05/24 02:59:43;;;;;;;1.10;1.00;;;10.60;99.90;;;;;;5072214;28;20211;-56
2021/05/24 03:02:14;;;;;;;1.97;1.23;;;10.60;99.90;;;;;;5072110;28;20548;-56
2021/05/24 03:04:41;;;;;;;2.67;1.40;;;10.60;99.90;;;;;;5072253;28;20229;-55
2021/05/24 03:07:08;;;;;;;2.80;1.00;;;10.60;99.90;;;;;;5072253;28;20204;-58
2021/05/24 03:09:35;;;;;;;1.87;0.90;;;10.50;99.90;;;;;;5070451;28;20208;-56
2021/05/24 03:12:01;;;;;;;3.77;1.43;;;10.50;99.90;;;;;;5071928;28;20572;-55
2021/05/24 03:14:29;;;;;;;2.37;1.13;;;10.60;99.90;;;;;;5072326;28;20228;-58
2021/05/24 03:16:55;;;;;;;3.00;1.00;;;10.60;99.90;;;;;;5071981;28;20216;-56
2021/05/24 03:19:21;;;;;;;2.27;1.10;;;10.70;99.90;;;;;;5071929;28;20211;-59
2021/05/24 03:21:48;;;;;;;1.43;1.00;;;10.70;99.90;;;;;;5071837;28;20208;-58
2021/05/24 03:24:14;;;;;;;2.57;1.00;;;10.70;99.90;;;;;;5070727;28;20233;-57
2021/05/24 03:26:40;;;;;;;2.23;1.10;;;10.70;99.90;;;;;;5051808;28;20673;-53
2021/05/24 03:29:06;;;;;;;3.97;1.40;;;10.80;99.90;;;;;;5052086;28;20209;-55
2021/05/24 03:31:33;;;;;;;1.37;1.23;;;10.80;99.90;;;;;;5051741;28;20244;-57
2021/05/24 03:33:59;;;;;;;3.13;1.10;;;10.80;99.90;;;;;;5051611;28;20209;-58
2021/05/24 03:36:25;;;;;;;1.67;0.97;;;10.80;99.90;;;;;;5052012;28;20255;-59
2021/05/24 03:38:52;;;;;;;2.40;1.10;;;10.80;99.90;;;;;;5051730;28;20209;-56
2021/05/24 03:41:19;;;;;;;3.33;1.20;;;10.80;99.90;;;;;;5051237;28;20229;-55
2021/05/24 03:43:47;;;;;;;1.90;1.00;;;10.90;99.90;;;;;;5071670;28;20571;-54
2021/05/24 03:46:13;;;;;;;1.60;1.10;;;10.90;99.90;;;;;;5071511;28;20228;-59
2021/05/24 03:48:40;;;;;;;2.03;1.30;;;10.90;99.90;;;;;;5071712;28;20622;-57
2021/05/24 03:51:07;;;;;;;2.93;1.10;;;11.00;99.90;;;;;;5071167;28;20266;-58
2021/05/24 03:53:33;;;;;;;2.63;0.93;;;11.00;99.90;;;;;;5071581;28;20215;-56
2021/05/24 03:56:00;;;;;;;6.80;1.40;;;11.10;99.90;;;;;;5070970;28;20260;-59
2021/05/24 03:58:27;;;;;;;4.23;1.13;;;11.10;99.90;;;;;;5071930;28;20253;-58
2021/05/24 04:00:53;;;;;;;1.87;1.20;;;11.20;99.90;;;;;;5069801;28;20700;-55
2021/05/24 04:03:20;;;;;;;1.93;1.10;;;11.20;99.90;;;;;;5071395;28;20209;-58
2021/05/24 04:05:48;;;;;;;3.57;1.10;;;11.30;99.90;;;;;;5070413;28;20368;-58
2021/05/24 04:08:15;;;;;;;3.80;1.20;;;11.30;99.90;;;;;;5071179;28;20212;-56
2021/05/24 04:10:47;;;;;;;4.07;1.10;;;11.40;99.90;;;;;;5071098;28;20573;-57
2021/05/24 04:13:14;;;;;;;3.43;1.10;;;11.50;99.90;;;;;;5071743;28;20205;-58
2021/05/24 04:15:44;;;;;;;2.10;1.03;;;11.50;99.90;;;;;;5071562;28;20224;-53
2021/05/24 04:18:14;;;;;;;1.43;1.03;;;11.50;99.90;;;;;;5069854;28;20212;-60
2021/05/24 04:20:41;;;;;;;2.83;0.90;;;11.60;99.90;;;;;;5071424;28;20201;-59
2021/05/24 04:23:07;;;;;;;4.07;1.13;;;11.60;99.90;;;;;;5071732;28;20209;-58
2021/05/24 04:25:33;;;;;;;2.23;1.10;;;11.70;99.90;;;;;;5071993;28;20228;-59
2021/05/24 04:27:59;;;;;;;4.10;1.20;;;11.70;99.90;;;;;;5071672;28;20201;-60
2021/05/24 04:30:26;;;;;;;1.87;0.97;;;11.70;99.90;;;;;;5071246;28;20228;-60
2021/05/24 04:32:52;;;;;;;1.80;0.97;;;11.70;99.90;;;;;;5077833;28;20211;-59
2021/05/24 04:35:18;;;;;;;3.73;1.10;;;11.70;99.90;;;;;;5080981;28;20717;-58
2021/05/24 04:37:45;;;;;;;2.70;0.90;;;11.80;99.90;;;;;;5070909;28;20217;-58
2021/05/24 04:40:12;;;;;;;2.90;1.10;;;11.80;99.90;;;;;;5070801;28;20250;-58
2021/05/24 04:42:38;;;;;;;1.77;1.10;;;11.80;99.90;;;;;;5071221;28;20205;-58
2021/05/24 04:45:05;;;;;;;2.67;1.07;;;11.90;99.90;;;;;;5071176;28;20229;-58
2021/05/24 04:47:32;;;;;;;1.80;1.10;;;11.90;99.90;;;;;;5071595;28;20213;-57
2021/05/24 04:49:59;;;;;;;1.37;0.80;;;11.90;99.90;;;;;;5070410;28;20632;-57
2021/05/24 04:52:26;;;;;;;2.97;0.93;;;11.90;99.90;;;;;;5069282;28;20307;-59
2021/05/24 04:54:52;;;;;;;2.57;1.00;;;11.90;99.90;;;;;;5070859;28;20264;-56
2021/05/24 04:57:19;;;;;;;3.40;1.40;;;12.00;99.90;;;;;;5071212;28;20205;-53
2021/05/24 04:59:46;;;;;;;2.50;1.03;;;12.00;99.90;;;;;;5070481;28;20208;-60
2021/05/24 05:02:12;;;;;;;1.93;1.30;;;12.00;99.90;;;;;;5070867;28;20270;-56
2021/05/24 05:04:39;;;;;;;3.43;1.10;;;12.10;99.90;;;;;;5070709;28;20256;-57
2021/05/24 05:07:05;;;;;;;1.97;1.03;;;12.10;99.90;;;;;;5068588;28;20581;-56
2021/05/24 05:09:32;;;;;;;1.73;0.73;;;12.30;99.90;;;;;;5070976;28;20216;-58
2021/05/24 05:11:58;;;;;;;4.93;1.00;;;12.30;99.90;;;;;;5070591;28;20202;-58
2021/05/24 05:14:25;;;;;;;2.43;0.87;;;12.40;99.90;;;;;;5070433;28;20641;-58
2021/05/24 05:16:52;;;;;;;1.73;1.00;;;12.50;99.90;;;;;;5070996;28;20245;-56
2021/05/24 05:19:18;;;;;;;3.83;1.00;;;12.60;99.90;;;;;;5073820;28;20272;-58
2021/05/24 05:21:46;;;;;;;2.20;0.90;;;12.80;99.90;;;;;;5074049;28;20198;-55
2021/05/24 05:24:12;;;;;;;1.87;1.00;;;12.80;99.90;;;;;;5072572;28;20206;-57
2021/05/24 05:26:38;;;;;;;3.23;1.20;;;12.80;99.90;;;;;;5074222;28;20214;-59
2021/05/24 05:29:04;;;;;;;1.80;0.90;;;12.80;99.90;;;;;;5074184;28;20247;-55
2021/05/24 05:31:31;;;;;;;1.87;0.80;;;12.90;99.90;;;;;;5073447;28;20230;-54
2021/05/24 05:33:57;;;;;;;3.43;1.07;;;13.10;99.90;;;;;;5073526;28;20208;-56
2021/05/24 05:36:25;;;;;;;2.43;1.00;;;13.20;99.90;;;;;;5074012;28;20280;-55
2021/05/24 05:38:52;;;;;;;1.40;0.90;;;13.30;99.90;;;;;;5074146;28;20584;-56
2021/05/24 05:41:18;;;;;;;2.17;0.80;;;13.40;99.90;;;;;;5072451;28;20205;-56
2021/05/24 05:43:45;;;;;;;1.77;1.00;;;13.30;99.90;;;;;;5073790;28;20212;-58
2021/05/24 05:46:12;;;;;;;2.13;0.80;;;13.30;99.90;;;;;;5073547;28;20229;-56
2021/05/24 05:48:39;;;;;;;2.90;0.90;;;13.30;99.90;;;;;;5073477;28;20653;-54
2021/05/24 05:51:05;;;;;;;3.60;1.00;;;13.30;99.90;;;;;;5073579;28;20234;-54
2021/05/24 05:53:32;;;;;;;4.93;1.20;;;13.40;99.90;;;;;;5073556;28;20294;-54
2021/05/24 05:56:00;;;;;;;2.40;0.87;;;13.40;99.90;;;;;;5073309;28;20611;-60
2021/05/24 05:58:26;;;;;;;2.40;0.90;;;13.50;99.90;;;;;;5071984;28;20230;-59
2021/05/24 06:00:52;;;;;;;2.93;0.93;;;13.60;99.90;;;;;;5073319;28;20197;-57
2021/05/24 06:03:18;;;;;;;2.20;0.97;;;13.70;99.90;;;;;;5073730;28;20247;-57
2021/05/24 06:05:45;;;;;;;6.27;1.37;;;13.80;99.90;;;;;;5073148;28;20232;-58
2021/05/24 06:08:11;;;;;;;1.40;0.97;;;13.90;99.90;;;;;;5073632;28;20223;-57
2021/05/24 06:10:37;;;;;;;1.30;0.80;;;14.00;99.90;;;;;;5073351;28;20220;-59
2021/05/24 06:13:04;;;;;;;3.07;1.23;;;14.10;99.90;;;;;;5071693;28;20275;-58
2021/05/24 06:15:30;;;;;;;2.23;0.80;;;14.20;99.90;;;;;;5072806;28;20231;-57
2021/05/24 06:17:56;;;;;;;1.50;0.70;;;14.30;99.90;;;;;;5073454;28;20206;-58
2021/05/24 06:20:22;;;;;;;2.87;0.90;;;14.30;99.90;;;;;;5072910;28;20205;-53
2021/05/24 06:22:49;;;;;;;4.00;0.80;;;14.40;99.90;;;;;;5073245;28;20216;-56
2021/05/24 06:25:15;;;;;;;1.07;0.80;;;14.50;99.90;;;;;;5072791;28;20232;-54
2021/05/24 06:27:41;;;;;;;1.97;0.93;;;14.60;99.90;;;;;;5072991;28;20212;-58
2021/05/24 06:30:10;;;;;;;1.23;0.80;;;14.60;99.90;;;;;;5070291;28;20754;-56
2021/05/24 06:32:37;;;;;;;5.00;0.90;;;14.70;99.90;;;;;;5073099;28;20205;-56
2021/05/24 06:35:05;;;;;;;2.43;0.93;;;14.70;99.90;;;;;;5072594;28;20251;-57
2021/05/24 06:37:31;;;;;;;3.40;0.80;;;14.80;99.90;;;;;;5072546;28;20738;-56
2021/05/24 06:39:57;;;;;;;2.57;0.70;;;14.80;99.90;;;;;;5072657;28;20673;-56
2021/05/24 06:42:24;;;;;;;2.17;0.80;;;14.90;99.90;;;;;;5072789;28;20266;-59
2021/05/24 06:44:50;;;;;;;3.10;0.60;;;14.90;99.90;;;;;;5072591;28;20264;-57
2021/05/24 06:47:17;;;;;;;4.03;1.00;;;15.00;99.90;;;;;;5071864;28;20205;-60
2021/05/24 06:49:44;;;;;;;3.97;1.10;;;15.00;99.90;;;;;;5072068;28;20305;-57
2021/05/24 06:52:10;;;;;;;1.73;0.80;;;15.10;99.90;;;;;;5072349;28;20262;-59
2021/05/24 06:54:36;;;;;;;2.50;0.70;;;15.20;99.90;;;;;;5072463;28;20232;-57
2021/05/24 06:57:04;;;;;;;4.10;1.10;;;15.30;99.90;;;;;;5072124;28;20200;-59
2021/05/24 06:59:31;;;;;;;3.90;0.90;;;15.30;99.90;;;;;;5072041;28;20601;-58
2021/05/24 07:01:57;;;;;;;2.30;1.03;;;15.40;99.90;;;;;;5072538;28;20205;-56
2021/05/24 07:04:24;;;;;;;2.97;1.10;;;15.50;99.90;;;;;;5070602;28;20224;-55
2021/05/24 07:06:50;;;;;;;1.67;0.80;;;15.60;99.90;;;;;;5072000;28;20685;-58
2021/05/24 07:09:16;;;;;;;5.40;0.87;;;15.70;99.90;;;;;;5071889;28;20696;-56
2021/05/24 07:11:43;;;;;;;2.30;0.80;;;15.90;99.90;;;;;;5071937;28;20600;-58
2021/05/24 07:14:10;;;;;;;1.50;0.90;;;15.90;99.90;;;;;;5071979;28;20567;-57
2021/05/24 07:16:36;;;;;;;3.63;1.20;;;15.90;99.90;;;;;;5072350;28;20576;-58
2021/05/24 07:19:02;;;;;;;3.10;0.83;;;16.00;99.90;;;;;;5071844;28;20563;-58
2021/05/24 07:21:29;;;;;;;4.17;1.03;;;16.00;99.90;;;;;;5069805;28;20201;-59
2021/05/24 07:23:55;;;;;;;1.87;0.77;;;16.20;99.90;;;;;;5071760;28;20228;-56
2021/05/24 07:26:21;;;;;;;3.67;0.93;;;16.40;99.90;;;;;;5071687;28;20696;-59
2021/05/24 07:28:48;;;;;;;2.83;0.80;;;16.50;99.90;;;;;;5072069;28;20215;-55
2021/05/24 07:31:14;;;;;;;1.40;0.73;;;16.60;99.90;;;;;;5071313;28;20221;-54
2021/05/24 07:33:40;;;;;;;3.77;0.77;;;16.80;99.90;;;;;;5072265;28;20200;-58
2021/05/24 07:36:07;;;;;;;2.30;1.10;;;16.80;99.90;;;;;;5072122;28;20221;-58
2021/05/24 07:38:34;;;;;;;1.80;0.70;;;17.00;99.90;;;;;;5070292;28;20212;-56
2021/05/24 07:41:00;;;;;;;2.20;0.67;;;17.10;99.90;;;;;;5070411;28;20201;-57
2021/05/24 07:43:26;;;;;;;1.53;0.63;;;17.10;99.90;;;;;;5072016;28;20209;-57
2021/05/24 07:45:52;;;;;;;4.07;1.00;;;17.20;99.90;;;;;;5071793;28;20336;-56
2021/05/24 07:48:18;;;;;;;2.33;0.67;;;17.50;99.90;;;;;;5072155;28;20239;-57
2021/05/24 07:50:45;;;;;;;1.77;0.63;;;17.60;99.90;;;;;;5071845;28;20225;-60
2021/05/24 07:53:11;;;;;;;3.00;0.70;;;17.70;99.90;;;;;;5071109;28;20715;-53
2021/05/24 07:55:38;;;;;;;2.10;0.80;;;17.80;99.90;;;;;;5071174;28;20236;-56
2021/05/24 07:58:04;;;;;;;2.17;0.60;;;17.70;99.90;;;;;;5071989;28;20557;-60
2021/05/24 08:00:30;;;;;;;2.33;0.80;;;17.70;99.90;;;;;;5071456;28;20227;-59
2021/05/24 08:02:57;;;;;;;2.37;0.77;;;17.80;99.90;;;;;;5071507;28;20201;-57
2021/05/24 08:05:23;;;;;;;3.97;0.90;;;17.80;99.90;;;;;;5071452;28;20232;-58
2021/05/24 08:07:49;;;;;;;1.30;0.80;;;17.70;99.90;;;;;;5071673;28;20212;-59
2021/05/24 08:10:16;;;;;;;2.03;0.60;;;17.80;99.90;;;;;;5069525;28;20228;-56
2021/05/24 08:12:44;;;;;;;5.47;0.80;;;17.60;99.90;;;;;;5071310;28;20308;-58
2021/05/24 08:15:14;;;;;;;1.93;0.60;;;17.70;99.90;;;;;;5071670;28;20257;-58
2021/05/24 08:17:41;;;;;;;4.93;0.80;;;17.70;99.90;;;;;;5071833;28;20227;-63
2021/05/24 08:20:09;;;;;;;2.57;0.90;;;17.90;99.90;;;;;;5068305;28;20217;-58
2021/05/24 08:22:36;;;;;;;4.13;0.80;;;17.90;99.90;;;;;;5071571;28;20239;-65
2021/05/24 08:25:04;;;;;;;4.43;0.87;;;18.00;99.90;;;;;;5071682;28;20302;-65
2021/05/24 08:27:30;;;;;;;2.60;0.77;;;18.00;99.90;;;;;;5089496;28;20200;-68
2021/05/24 08:29:57;;;;;;;2.27;0.70;;;18.00;99.90;;;;;;5070519;28;20684;-66
2021/05/24 08:32:23;;;;;;;4.63;0.80;;;18.20;99.90;;;;;;5072005;28;20274;-66
2021/05/24 08:34:49;;;;;;;5.23;1.30;;;18.50;99.90;;;;;;5070590;28;20228;-64
2021/05/24 08:37:15;;;;;;;3.33;0.77;;;18.50;99.90;;;;;;5070938;28;20212;-64
2021/05/24 08:39:43;;;;;;;4.50;0.90;;;18.20;99.90;;;;;;5071358;28;20207;-64
2021/05/24 08:42:09;;;;;;;3.03;0.93;;;18.00;99.90;;;;;;5070974;28;20204;-64
2021/05/24 08:44:38;;;;;;;1.43;0.70;;;17.60;99.90;;;;;;5076022;28;20261;-64
2021/05/24 08:47:05;;;;;;;1.87;0.67;;;17.30;99.90;;;;;;5090754;28;20208;-64
2021/05/24 08:49:31;;;;;;;5.23;0.90;;;17.30;99.90;;;;;;5090687;28;20216;-64
2021/05/24 08:51:58;;;;;;;4.60;0.80;;;17.30;99.90;;;;;;5092094;28;20236;-65
2021/05/24 08:54:24;;;;;;;2.10;1.00;;;17.20;99.90;;;;;;5094615;28;20242;-65
2021/05/24 08:56:50;;;;;;;2.47;1.00;;;17.10;99.90;;;;;;5094743;28;20211;-64
2021/05/24 08:59:16;;;;;;;1.70;0.83;;;16.80;99.90;;;;;;5094391;28;20258;-65
2021/05/24 09:01:42;;;;;;;4.67;0.87;;;16.60;99.90;;;;;;5094324;28;20205;-65
2021/05/24 09:04:10;;;;;;;5.30;1.10;;;16.60;99.90;;;;;;5094273;28;20204;-65
2021/05/24 09:06:38;;;;;;;2.50;0.97;;;16.60;99.90;;;;;;5093995;28;20212;-65
2021/05/24 09:09:08;;;;;;;4.50;0.80;;;16.60;99.90;;;;;;5094270;28;20257;-67
2021/05/24 09:11:35;;;;;;;1.30;0.87;;;16.50;99.90;;;;;;5093935;28;20231;-65
2021/05/24 09:14:01;;;;;;;4.40;0.90;;;16.50;99.90;;;;;;5094033;28;20208;-65
2021/05/24 09:16:28;;;;;;;2.63;1.00;;;16.60;99.90;;;;;;5094148;28;20678;-64
2021/05/24 09:19:13;;;;;;;2.33;0.80;;;16.60;99.90;;;;;;5093791;28;20261;-65
2021/05/24 09:21:47;;;;;;;3.47;0.80;;;16.70;99.90;;;;;;5094103;28;20200;-66
2021/05/24 09:24:26;;;;;;;1.63;0.70;;;16.70;99.90;;;;;;5094117;28;20625;-66
2021/05/24 09:26:53;;;;;;;3.07;0.80;;;16.60;99.90;;;;;;5093913;28;20212;-66
2021/05/24 09:29:23;;;;;;;3.03;0.70;;;16.60;99.90;;;;;;5093644;28;20201;-66
2021/05/24 09:32:12;;;;;;;2.03;0.87;;;16.80;99.90;;;;;;5093703;28;20224;-66
2021/05/24 09:34:40;;;;;;;2.63;0.80;;;16.80;99.90;;;;;;5094063;28;20232;-66
2021/05/24 09:37:07;;;;;;;3.77;0.90;;;16.70;99.90;;;;;;5093387;28;20204;-66
2021/05/24 09:39:34;;;;;;;7.07;1.20;;;16.60;99.90;;;;;;5093305;28;20206;-65
2021/05/24 09:42:05;;;;;;;2.03;0.93;;;16.80;99.90;;;;;;5093278;28;20725;-66
2021/05/24 09:44:32;;;;;;;2.10;0.90;;;16.90;99.90;;;;;;5093845;28;20656;-65
2021/05/24 09:46:59;;;;;;;4.23;0.90;;;16.90;99.90;;;;;;5093571;28;20208;-65
2021/05/24 09:49:28;;;;;;;5.07;1.47;;;16.90;99.90;;;;;;5093386;28;20802;-65
2021/05/24 09:51:56;;;;;;;3.30;1.23;;;16.70;99.90;;;;;;5093402;28;20227;-65
2021/05/24 09:54:23;;;;;;;4.53;1.13;;;16.80;99.90;;;;;;5093250;28;20232;-65
2021/05/24 09:56:50;;;;;;;4.77;1.10;;;16.80;99.90;;;;;;5093554;28;20232;-64
2021/05/24 09:59:20;;;;;;;3.20;1.27;;;16.80;99.90;;;;;;5093504;28;20263;-63
2021/05/24 10:01:49;;;;;;;3.97;1.07;;;16.90;99.90;;;;;;5093354;28;20196;-63
2021/05/24 10:04:17;;;;;;;2.13;1.00;;;17.00;99.90;;;;;;5092590;28;20228;-63
2021/05/24 10:06:44;;;;;;;5.63;1.17;;;17.20;99.90;;;;;;5092603;28;20580;-63
2021/05/24 10:09:13;;;;;;;2.60;0.70;;;17.20;99.90;;;;;;5093383;28;20243;-63
2021/05/24 10:11:43;;;;;;;1.97;0.50;;;17.20;99.90;;;;;;5093743;28;20228;-62
2021/05/24 10:14:09;;;;;;;1.27;0.60;;;17.40;99.90;;;;;;5093395;28;20211;-63
2021/05/24 10:16:39;;;;;;;4.00;0.73;;;17.70;99.90;;;;;;5092865;28;20231;-63
2021/05/24 10:19:06;;;;;;;2.13;0.97;;;17.90;99.90;;;;;;5092711;28;20212;-63
2021/05/24 10:21:34;;;;;;;4.23;0.70;;;17.80;99.90;;;;;;5092658;28;20684;-63
2021/05/24 10:24:01;;;;;;;3.77;1.10;;;17.60;99.90;;;;;;5092748;28;20660;-63
2021/05/24 10:26:29;;;;;;;3.27;1.23;;;17.40;99.90;;;;;;5092925;28;20294;-63
2021/05/24 10:28:57;;;;;;;7.37;0.80;;;17.50;99.90;;;;;;5093292;28;20228;-63
2021/05/24 10:31:25;;;;;;;1.77;1.10;;;17.60;99.90;;;;;;5092118;28;20221;-63
2021/05/24 10:33:51;;;;;;;1.90;1.10;;;17.20;99.90;;;;;;5092562;28;20739;-63
2021/05/24 10:36:23;;;;;;;2.67;0.80;;;16.90;99.90;;;;;;5092684;28;20220;-63
2021/05/24 10:39:10;;;;;;;4.17;0.90;;;16.70;99.90;;;;;;5092738;28;20204;-63
2021/05/24 10:41:45;;;;;;;3.83;1.10;;;16.60;99.90;;;;;;5092440;28;20228;-63
2021/05/24 10:44:14;;;;;;;2.37;1.03;;;16.40;99.90;;;;;;5092585;28;20204;-63
2021/05/24 10:46:40;;;;;;;5.80;1.00;;;16.30;99.90;;;;;;5088846;28;20208;-63
2021/05/24 10:49:16;;;;;;;2.93;0.87;;;16.00;99.90;;;;;;5072151;28;20205;-63
2021/05/24 10:51:51;;;;;;;3.03;1.00;;;15.70;99.90;;;;;;5071839;28;20224;-63
2021/05/24 10:54:24;;;;;;;3.73;1.07;;;15.50;99.90;;;;;;5071827;28;20260;-63
2021/05/24 10:57:07;;;;;;;2.13;1.03;;;15.10;99.90;;;;;;5072220;28;20209;-63
2021/05/24 10:59:53;;;;;;;2.50;1.10;;;14.90;99.90;;;;;;5071984;28;20266;-62
2021/05/24 11:02:37;;;;;;;2.23;1.10;;;14.90;99.90;;;;;;5072253;28;20574;-64
2021/05/24 11:05:06;;;;;;;3.67;1.30;;;14.90;99.90;;;;;;5069541;28;20228;-64
2021/05/24 11:07:34;;;;;;;1.97;1.17;;;14.80;99.90;;;;;;5071727;28;20742;-64
2021/05/24 11:10:19;;;;;;;2.50;0.80;;;14.80;99.90;;;;;;5071665;28;20205;-63
2021/05/24 11:12:48;;;;;;;3.27;1.13;;;14.70;99.90;;;;;;5058695;28;20211;-63
2021/05/24 11:15:19;;;;;;;2.70;1.13;;;14.70;99.90;;;;;;5071758;28;20227;-64
2021/05/24 11:18:11;;;;;;;2.23;1.20;;;14.70;99.90;;;;;;5071687;28;20209;-64
2021/05/24 11:20:40;;;;;;;2.07;1.27;;;14.70;99.90;;;;;;5070223;28;20205;-63
2021/05/24 11:23:12;;;;;;;2.67;1.20;;;14.80;99.90;;;;;;5071937;28;20581;-64
2021/05/24 11:25:52;;;;;;;2.60;1.10;;;14.80;99.90;;;;;;5071498;28;20712;-63
2021/05/24 11:28:19;;;;;;;5.20;1.20;;;14.90;99.90;;;;;;5071759;28;20208;-63
2021/05/24 11:31:06;;;;;;;2.37;0.80;;;14.90;99.90;;;;;;5070936;28;20225;-63
2021/05/24 11:33:37;;;;;;;4.23;0.80;;;15.10;99.90;;;;;;5071558;28;20241;-63
2021/05/24 11:36:05;;;;;;;2.63;1.40;;;15.00;99.90;;;;;;5070549;28;20231;-63
2021/05/24 11:38:31;;;;;;;3.73;1.10;;;14.90;99.90;;;;;;5071152;28;20367;-63
2021/05/24 11:41:12;;;;;;;3.97;1.20;;;14.90;99.90;;;;;;5071146;28;20211;-66
2021/05/24 11:43:42;;;;;;;3.73;1.20;;;15.10;99.90;;;;;;5069461;28;20281;-63
2021/05/24 11:46:09;;;;;;;3.47;1.03;;;15.00;99.90;;;;;;5070399;28;20225;-63
2021/05/24 11:48:38;;;;;;;3.03;1.07;;;15.10;99.90;;;;;;5070906;28;20262;-64
2021/05/24 11:51:05;;;;;;;3.97;0.97;;;15.10;99.90;;;;;;5070312;28;20319;-61
2021/05/24 11:53:32;;;;;;;2.47;1.37;;;15.10;99.90;;;;;;5069085;28;20762;-62
2021/05/24 11:56:10;;;;;;;5.07;1.70;;;15.00;99.90;;;;;;5070800;28;20331;-62
2021/05/24 11:58:59;;;;;;;5.03;1.20;;;14.90;99.90;;;;;;5071097;28;20689;-62
2021/05/24 12:01:26;;;;;;;7.73;1.17;;;14.80;99.90;;;;;;5069962;28;20212;-64
2021/05/24 12:03:52;;;;;;;4.17;1.27;;;14.70;99.90;;;;;;5071185;28;20209;-63
2021/05/24 12:06:18;;;;;;;3.50;1.13;;;14.60;99.90;;;;;;5070450;28;20228;-62
2021/05/24 12:08:46;;;;;;;2.10;1.10;;;14.40;99.90;;;;;;5070834;28;20207;-63
2021/05/24 12:11:13;;;;;;;3.30;1.13;;;14.40;99.90;;;;;;5069485;28;20311;-68
2021/05/24 12:14:01;;;;;;;3.27;1.30;;;14.20;99.90;;;;;;5071088;28;20238;-67
2021/05/24 12:16:28;;;;;;;5.33;1.33;;;14.20;99.90;;;;;;5071304;28;20219;-68
2021/05/24 12:18:56;;;;;;;2.37;1.17;;;14.20;99.90;;;;;;5070833;28;20246;-67
2021/05/24 12:21:38;;;;;;;3.47;1.20;;;14.00;99.90;;;;;;5070340;28;20612;-66
2021/05/24 12:24:07;;;;;;;2.73;0.90;;;14.00;99.90;;;;;;5070547;28;20212;-67
2021/05/24 12:26:34;;;;;;;4.57;1.47;;;13.90;99.90;;;;;;5070593;28;20211;-67
2021/05/24 12:29:03;;;;;;;3.90;1.53;;;13.90;99.90;;;;;;5075239;28;20211;-65
2021/05/24 12:31:30;;;;;;;5.27;1.60;;;13.90;99.90;;;;;;5074237;28;20227;-66
2021/05/24 12:33:57;;;;;;;5.47;1.37;;;13.70;99.90;;;;;;5074250;28;20204;-66
2021/05/24 12:36:33;;;;;;;4.00;1.70;;;14.00;99.90;;;;;;5074222;28;20214;-66
2021/05/24 12:39:03;;;;;;;1.67;1.10;;;13.80;99.90;;;;;;5074444;28;20211;-66
2021/05/24 12:41:31;;;;;;;2.83;1.30;;;13.80;99.90;;;;;;5072707;28;20666;-66
2021/05/24 12:43:59;;;;;;;4.00;1.40;;;13.60;99.90;;;;;;5073934;28;20205;-65
2021/05/24 12:46:26;;;;;;;4.07;1.20;;;13.40;99.90;;;;;;5075285;28;20224;-64
2021/05/24 12:48:53;;;;;;;3.17;1.47;;;13.40;99.90;;;;;;5074911;28;20606;-67
2021/05/24 12:51:22;;;;;;;3.33;1.07;;;13.30;99.90;;;;;;5073898;28;20217;-67